Cebollita Spring, Valles Caldera, New Mexico Weather observations

Data are for 10 minute period ending at time listed.
 Day   Time   Solar   Ave.   Ave.  Ave.  Vector  Max.   Baro.   Total    
  of    of     Rad.   Air    Rel.  Wind   Wind   Wind  Press.  Precip.   
Year   Day            Temp.  Hum.  Speed  Dir.   Gust                    
2014   (MST)  Kw/m2    F      %     mph   deg.    mph    mb.     in.     
-------------------------------------------------------------------------
 232   20:30   0.00   51.2    74    1.8   349     3.6   99999.0    0.00 
 232   20:40   0.00   50.9    74    1.9   346     3.0   99999.0    0.00 
 232   20:50   0.00   50.4    75    1.0   345     3.0   99999.0    0.00 
 232   21:00   0.00   49.5    79    0.1   352     1.8   99999.0    0.00 
 232   21:10   0.00   48.9    79    2.1   353     4.2   99999.0    0.00 
 232   21:20   0.00   48.7    79    1.8   359     3.6   99999.0    0.00 
 232   21:30   0.00   48.3    80    1.6    12     3.6   99999.0    0.00 
 232   21:40   0.00   47.9    80    2.0     6     3.9   99999.0    0.00 
 232   21:50   0.00   48.1    79    1.0   359     3.0   99999.0    0.00 
 232   22:00   0.00   48.1    79    1.3     0     3.6   99999.0    0.00 
 232   22:10   0.00   48.0    79    1.9   353     3.6   99999.0    0.00 
 232   22:20   0.00   47.8    79    2.1   358     4.8   99999.0    0.00 
 232   22:30   0.00   47.5    80    2.0   355     4.2   99999.0    0.00 
 232   22:40   0.00   47.8    78    2.4   358     5.4   99999.0    0.00 
 232   22:50   0.00   48.1    76    2.8   353     5.4   99999.0    0.00 
 232   23:00   0.00   48.3    76    2.8   353     4.8   99999.0    0.00 
 232   23:10   0.00   48.7    76    2.4   353     4.8   99999.0    0.00 
 232   23:20   0.00   48.5    79    3.3   344     4.8   99999.0    0.00 
 232   23:30   0.00   48.7    75    3.6   345     7.2   99999.0    0.00 
 232   23:40   0.00   49.3    74    3.4   347     6.6   99999.0    0.00 
 232   23:50   0.00   49.1    72    3.5   352     6.6   99999.0    0.00 
 233    0:00   0.00   49.4    69    2.6   356     5.4   99999.0    0.00 
 233    0:10   0.00   48.8    74    2.5   349     4.2   99999.0    0.00 
 233    0:20   0.00   47.9    76    3.0   350     4.8   99999.0    0.00 
 233    0:30   0.00   47.6    75    2.9   354     4.8   99999.0    0.00 
 233    0:40   0.00   47.8    73    3.0   356     4.8   99999.0    0.00 
 233    0:50   0.00   48.0    72    3.1   354     6.6   99999.0    0.00 
 233    1:00   0.00   48.2    71    2.5     5     5.4   99999.0    0.00 
 233    1:10   0.00   47.9    72    3.0   350     5.4   99999.0    0.00 
 233    1:20   0.00   48.0    70    3.1   354     5.4   99999.0    0.00 
 233    1:30   0.00   47.9    72    3.1   353     5.4   99999.0    0.00 
 233    1:40   0.00   47.5    73    3.4   350     5.4   99999.0    0.00 
 233    1:50   0.00   47.6    71    3.7   349     6.6   99999.0    0.00 
 233    2:00   0.00   47.9    68    4.1   343     6.6   99999.0    0.00 
 233    2:10   0.00   48.0    72    3.5   340     6.0   99999.0    0.00 
 233    2:20   0.00   47.4    70    2.8   349     4.8   99999.0    0.00 
 233    2:30   0.00   47.1    71    1.9     5     3.6   99999.0    0.00 
 233    2:40   0.00   46.1    74    2.6     3     4.2   99999.0    0.00 
 233    2:50   0.00   45.2    78    2.5   352     4.8   99999.0    0.00 
 233    3:00   0.00   44.8    78    3.1   346     4.8   99999.0    0.00 
 233    3:10   0.00   44.9    76    3.3   347     6.0   99999.0    0.00 
 233    3:20   0.00   45.8    73    3.5   348     6.6   99999.0    0.00 
 233    3:30   0.00   46.1    72    3.1   348     4.8   99999.0    0.00 
 233    3:40   0.00   45.8    73    3.1   346     5.4   99999.0    0.00 
 233    3:50   0.00   46.0    71    3.3   351     6.0   99999.0    0.00 
 233    4:00   0.00   46.3    74    3.1   347     5.4   99999.0    0.00 
 233    4:10   0.00   46.1    71    3.4   352     6.0   99999.0    0.00 
 233    4:20   0.00   46.6    70    3.4   350     6.6   99999.0    0.00 
 233    4:30   0.00   46.4    71    3.9   345     6.0   99999.0    0.00 
 233    4:40   0.00   46.9    68    3.7   346     6.6   99999.0    0.00 
 233    4:50   0.00   47.3    67    4.0   350     7.2   99999.0    0.00 
 233    5:00   0.00   47.4    66    3.8   350     6.0   99999.0    0.00 
 233    5:10   0.00   47.5    65    4.0   344     6.0   99999.0    0.00 
 233    5:20   0.00   47.2    66    3.7   335     5.4   99999.0    0.00 
 233    5:30   0.00   46.9    65    3.7   334     6.6   99999.0    0.00 
 233    5:40   0.01   46.4    69    3.4   331     4.8   99999.0    0.00 
 233    5:50   0.01   46.0    68    3.4   334     4.8   99999.0    0.00 
 233    6:00   0.02   46.3    69    3.5   335     5.4   99999.0    0.00 
 233    6:10   0.02   46.3    73    4.1   338     7.2   99999.0    0.00 
 233    6:20   0.04   47.1    69    3.9   345     6.0   99999.0    0.00 
 233    6:30   0.15   48.6    66    4.1   343     6.0   99999.0    0.00 
 233    6:40   0.22   49.9    64    4.7   337     7.8   99999.0    0.00 
 233    6:50   0.26   51.7    60    4.5   334     7.2   99999.0    0.00 
 233    7:00   0.30   53.5    56    4.2   336     6.6   99999.0    0.00 
 233    7:10   0.34   56.2    50    3.8   339     7.2   99999.0    0.00 
 233    7:20   0.39   58.6    46    3.4   339     6.0   99999.0    0.00 
 233    7:30   0.43   60.7    42    3.6   343     6.6   99999.0    0.00 
 233    7:40   0.47   62.3    40    3.4   342     6.6   99999.0    0.00 
 233    7:50   0.51   63.3    38    4.5   338    10.2   99999.0    0.00 
 233    8:00   0.55   64.1    35    5.0   348    10.2   99999.0    0.00 
 233    8:10   0.58   64.9    35    4.2   357     8.4   99999.0    0.00 
 233    8:20   0.68   66.3    34    4.0   347     8.4   99999.0    0.00 
 233    8:30   0.76   67.9    34    3.3   320     8.4   99999.0    0.00 
 233    8:40   0.71   67.9    32    4.9   309     8.4   99999.0    0.00 
 233    8:50   0.75   68.5    32    4.1   313     8.4   99999.0    0.00 
 233    9:00   0.78   68.3    30    4.8   318    10.8   99999.0    0.00 
 233    9:10   0.84   69.5    31    4.7   275     9.0   99999.0    0.00 
 233    9:20   0.87   70.3    30    5.5   294    10.8   99999.0    0.00 
 233    9:30   0.84   70.8    29    5.7   277    11.3   99999.0    0.00 
 233    9:40   0.89   71.3    26    3.1   284     6.6   99999.0    0.00 
 233    9:50   0.94   71.2    26    3.6   257     7.8   99999.0    0.00 
 233   10:00   0.74   72.1    28    4.5   354    10.8   99999.0    0.00 
 233   10:10   0.35   70.0    29    1.8   348     4.2   99999.0    0.00 
 233   10:20   0.51   69.8    29    2.4   274     6.0   99999.0    0.00 
 233   10:30   0.76   69.1    30    5.6   284     9.6   99999.0    0.00 
 233   10:40   1.08   72.0    27    4.8   332     9.0   99999.0    0.00 
 233   10:50   1.15   73.1    24    3.4   316     7.2   99999.0    0.00 
 233   11:00   0.67   72.6    26    3.2   208     6.0   99999.0    0.00 
 233   11:10   0.92   72.9    26    3.9   207     6.6   99999.0    0.00 
 233   11:20   0.38   71.7    27    3.7   219     7.8   99999.0    0.00 
 233   11:30   0.34   70.7    28    3.3   194     6.0   99999.0    0.00 
 233   11:40   0.35   70.7    28    2.5   198     4.8   99999.0    0.00 
 233   11:50   0.42   71.3    28    1.5   162     4.2   99999.0    0.00 
 233   12:00   0.29   71.1    27    2.3   115     3.6   99999.0    0.00 
 233   12:10   0.28   69.9    29    2.8   285     4.8   99999.0    0.00 
 233   12:20   0.29   69.7    30    2.7   251     5.4   99999.0    0.00 
 233   12:30   0.28   70.2    29    1.8   141     4.2   99999.0    0.00 
 233   12:40   0.73   71.1    28    1.2   113     4.2   99999.0    0.00 
 233   12:50   0.87   74.5    24    3.9   194     7.8   99999.0    0.00 
 233   13:00   0.60   72.6    25    4.2   222     8.4   99999.0    0.00 
 233   13:10   0.39   71.5    27    3.2   206     5.4   99999.0    0.00 
 233   13:20   0.43   71.9    28    3.4   252     8.4   99999.0    0.00 
 233   13:30   0.37   71.7    27    1.8   192     3.6   99999.0    0.00 
 233   13:40   0.37   72.0    27    2.2   183     4.8   99999.0    0.00 
 233   13:50   0.31   71.7    28    3.1   242     5.4   99999.0    0.00 
 233   14:00   0.32   71.7    28    1.1   287     4.2   99999.0    0.00 
 233   14:10   0.32   71.9    26    1.3   272     3.6   99999.0    0.00 
 233   14:20   0.29   71.7    28    0.7   348     2.4   99999.0    0.00 
 233   14:30   0.54   72.1    26    0.6     3     2.4   99999.0    0.00 
 233   14:40   0.41   73.8    25    2.5    34     3.6   99999.0    0.00 
 233   14:50   0.20   71.6    26    1.4    28     3.0   99999.0    0.00 
 233   15:00   0.17   71.2    31    1.0   246     2.4   99999.0    0.00 
 233   15:10   0.12   71.0    37    0.1   240     1.2   99999.0    0.00 
 233   15:20   0.08   69.6    40    0.0     0     0.0   99999.0    0.00 
 233   15:30   0.07   67.8    45    0.0   159     1.2   99999.0    0.00 
 233   15:40   0.09   66.7    50    0.3    88     2.4   99999.0    0.00 
 233   15:50   0.16   66.8    51    1.3    71     3.0   99999.0    0.00 
 233   16:00   0.17   68.5    48    0.0   269     1.2   99999.0    0.00 
 233   16:10   0.15   69.1    44    0.6    96     1.8   99999.0    0.00 
 233   16:20   0.16   69.2    51    0.0     0     0.0   99999.0    0.00 
 233   16:30   0.17   69.5    45    0.0     0     0.0   99999.0    0.00 
 233   16:40   0.19   69.9    43    0.0     0     0.0   99999.0    0.00 
 233   16:50   0.18   70.0    42    0.1   134     1.8   99999.0    0.00 
 233   17:00   0.12   69.3    47    0.1   101     1.2   99999.0    0.00 
 233   17:10   0.09   66.9    55    0.9    82     2.4   99999.0    0.00 
 233   17:20   0.10   65.0    62    1.7    77     2.4   99999.0    0.00 
 233   17:30   0.08   64.5    67    0.2    75     1.8   99999.0    0.00 
 233   17:40   0.07   64.3    70    0.0     0     0.0   99999.0    0.00 
 233   17:50   0.12   64.8    70    0.0     0     0.0   99999.0    0.00 
 233   18:00   0.04   66.3    63    0.0     0     0.0   99999.0    0.00 
 233   18:10   0.03   65.4    67    0.0     0     0.0   99999.0    0.00 
 233   18:20   0.03   63.4    70    0.0     0     0.0   99999.0    0.00 
 233   18:30   0.02   62.2    73    0.0     0     0.0   99999.0    0.00 
 233   18:40   0.02   61.3    74    0.1     4     1.2   99999.0    0.00 
 233   18:50   0.00   60.2    70    0.0    30     1.2   99999.0    0.00 
 233   19:00   0.00   59.3    74    2.6    74     3.6   99999.0    0.00 
 233   19:10   0.00   58.8    72    2.1    66     3.0   99999.0    0.00 
 233   19:20   0.00   58.3    72    0.3    53     1.8   99999.0    0.00 
 233   19:30   0.00   57.7    74    0.4    10     2.4   99999.0    0.00 
 233   19:40   0.00   57.1    74    1.8    77     2.4   99999.0    0.00 
 233   19:50   0.00   56.6    72    2.6    69     3.0   99999.0    0.00 
 233   20:00   0.00   56.4    72    0.8    67     2.4   99999.0    0.00 
 233   20:10   0.00   56.1    71    2.4    81     3.6   99999.0    0.00 
 233   20:20   0.00   56.2    71    2.7    77     6.0   99999.0    0.00 

Return to Cebollita Spring, Valles Caldera graphs page.


Western Regional Climate Center,wrcc@dri.edu